Time,TemperatureF,DewpointF,PressureIn,WindDirection,WindDirectionDegrees,WindSpeedMPH,WindSpeedGustMPH,Humidity,HourlyPrecipIn,Conditions,Clouds,dailyrainin,SoftwareType,DateUTC
2013-10-24 00:03:00,60.0,29.3,29.84,ESE,117,0.0,0.0,31,0.00,,---,0.00,VWS V14.01,2013-10-24 07:03:00,
2013-10-24 00:08:00,59.9,30.8,29.84,ESE,120,0.0,0.0,33,0.00,,---,0.00,VWS V14.01,2013-10-24 07:08:00,
2013-10-24 00:13:00,59.8,29.1,29.84,SE,128,0.0,0.0,31,0.00,,---,0.00,VWS V14.01,2013-10-24 07:13:00,
2013-10-24 00:19:00,59.8,29.9,29.84,SE,133,0.0,0.0,32,0.00,,---,0.00,VWS V14.01,2013-10-24 07:19:00,
2013-10-24 00:24:00,59.2,30.9,29.84,SE,136,0.0,0.0,34,0.00,,---,0.00,VWS V14.01,2013-10-24 07:24:00,
2013-10-24 00:29:00,59.6,30.5,29.84,SE,135,0.0,0.0,33,0.00,,---,0.00,VWS V14.01,2013-10-24 07:29:00,
2013-10-24 00:34:00,59.4,31.8,29.84,SE,135,0.0,0.0,35,0.00,,---,0.00,VWS V14.01,2013-10-24 07:34:00,
2013-10-24 00:39:00,59.2,29.4,29.84,SE,135,0.0,0.0,32,0.00,,---,0.00,VWS V14.01,2013-10-24 07:39:00,
2013-10-24 00:44:00,60.5,29.7,29.84,SE,135,0.0,0.0,31,0.00,,---,0.00,VWS V14.01,2013-10-24 07:44:00,
2013-10-24 00:49:00,60.1,30.2,29.84,SE,135,0.0,0.0,32,0.00,,---,0.00,VWS V14.01,2013-10-24 07:49:00,
2013-10-24 00:54:00,59.9,30.0,29.84,SE,135,0.0,0.0,32,0.00,,---,0.00,VWS V14.01,2013-10-24 07:54:00,
2013-10-24 00:59:00,59.8,29.9,29.84,SE,135,0.0,0.0,32,0.00,,---,0.00,VWS V14.01,2013-10-24 07:59:00,
2013-10-24 01:04:00,59.5,29.6,29.84,SE,136,0.0,0.0,32,0.00,,---,0.00,VWS V14.01,2013-10-24 08:04:00,
2013-10-24 01:09:00,59.2,29.4,29.84,SE,135,0.0,0.0,32,0.00,,---,0.00,VWS V14.01,2013-10-24 08:09:00,
2013-10-24 01:14:00,59.0,30.0,29.84,SE,135,0.0,0.0,33,0.00,,---,0.00,VWS V14.01,2013-10-24 08:14:00,
2013-10-24 01:19:00,58.5,29.5,29.84,SE,136,0.0,0.0,33,0.00,,---,0.00,VWS V14.01,2013-10-24 08:19:00,
2013-10-24 01:24:00,58.0,31.2,29.84,SE,138,0.0,0.0,36,0.00,,---,0.00,VWS V14.01,2013-10-24 08:24:00,
2013-10-24 01:29:00,56.6,31.3,29.84,SE,138,0.0,0.0,38,0.00,,---,0.00,VWS V14.01,2013-10-24 08:29:00,
2013-10-24 01:34:00,55.9,30.7,29.84,SE,138,0.0,0.0,38,0.00,,---,0.00,VWS V14.01,2013-10-24 08:34:00,
2013-10-24 01:39:00,56.2,31.6,29.85,SE,138,0.0,0.0,39,0.00,,---,0.00,VWS V14.01,2013-10-24 08:39:00,
2013-10-24 01:44:00,55.2,31.3,29.85,SE,138,0.0,0.0,40,0.00,,---,0.00,VWS V14.01,2013-10-24 08:44:00,
2013-10-24 01:49:00,54.7,31.5,29.85,SE,138,0.0,0.0,41,0.00,,---,0.00,VWS V14.01,2013-10-24 08:49:00,
2013-10-24 01:54:00,54.7,30.9,29.85,SW,217,0.0,0.0,40,0.00,,---,0.00,VWS V14.01,2013-10-24 08:54:00,
2013-10-24 01:59:00,54.6,30.8,29.85,SW,217,2.0,2.0,40,0.00,,---,0.00,VWS V14.01,2013-10-24 08:59:00,
2013-10-24 02:04:00,53.9,31.4,29.85,SW,215,0.0,2.0,42,0.00,,---,0.00,VWS V14.01,2013-10-24 09:04:00,
2013-10-24 02:09:00,53.9,30.8,29.85,SW,214,0.0,2.0,41,0.00,,---,0.00,VWS V14.01,2013-10-24 09:09:00,
2013-10-24 02:14:00,53.9,30.8,29.85,SSW,194,0.0,0.0,41,0.00,,---,0.00,VWS V14.01,2013-10-24 09:14:00,
2013-10-24 02:19:00,54.1,29.7,29.85,SSW,197,0.0,0.0,39,0.00,,---,0.00,VWS V14.01,2013-10-24 09:19:00,
2013-10-24 02:24:00,54.3,29.9,29.85,SSW,195,0.0,0.0,39,0.00,,---,0.00,VWS V14.01,2013-10-24 09:24:00,
2013-10-24 02:29:00,53.9,29.5,29.85,South,184,0.0,0.0,39,0.00,,---,0.00,VWS V14.01,2013-10-24 09:29:00,
2013-10-24 02:34:00,53.7,30.0,29.85,SSE,155,0.0,0.0,40,0.00,,---,0.00,VWS V14.01,2013-10-24 09:34:00,
2013-10-24 02:39:00,53.7,30.0,29.85,SSE,155,0.0,0.0,40,0.00,,---,0.00,VWS V14.01,2013-10-24 09:39:00,
2013-10-24 02:44:00,54.2,29.8,29.85,SSE,165,0.0,0.0,39,0.00,,---,0.00,VWS V14.01,2013-10-24 09:44:00,
2013-10-24 02:49:00,54.1,30.3,29.85,SSW,197,0.0,0.0,40,0.00,,---,0.00,VWS V14.01,2013-10-24 09:49:00,
2013-10-24 02:54:00,53.3,30.8,29.85,South,173,0.0,0.0,42,0.00,,---,0.00,VWS V14.01,2013-10-24 09:54:00,
2013-10-24 02:59:00,52.6,30.8,29.85,SSE,155,0.0,0.0,43,0.00,,---,0.00,VWS V14.01,2013-10-24 09:59:00,
2013-10-24 03:04:00,52.5,30.7,29.85,SSE,155,0.0,0.0,43,0.00,,---,0.00,VWS V14.01,2013-10-24 10:04:00,
2013-10-24 03:09:00,52.5,30.7,29.85,SSE,164,0.0,0.0,43,0.00,,---,0.00,VWS V14.01,2013-10-24 10:09:00,
2013-10-24 03:14:00,53.5,29.8,29.85,SSE,155,0.0,0.0,40,0.00,,---,0.00,VWS V14.01,2013-10-24 10:14:00,
2013-10-24 03:19:00,54.1,30.3,29.85,SSE,159,0.0,0.0,40,0.00,,---,0.00,VWS V14.01,2013-10-24 10:19:00,
2013-10-24 03:24:00,53.5,30.4,29.85,SSW,212,0.0,0.0,41,0.00,,---,0.00,VWS V14.01,2013-10-24 10:24:00,
2013-10-24 03:29:00,53.0,30.0,29.85,SSW,208,0.0,0.0,41,0.00,,---,0.00,VWS V14.01,2013-10-24 10:29:00,
2013-10-24 03:34:00,53.2,30.1,29.85,SSW,208,0.0,0.0,41,0.00,,---,0.00,VWS V14.01,2013-10-24 10:34:00,
2013-10-24 03:39:00,53.4,30.3,29.85,SW,224,0.0,0.0,41,0.00,,---,0.00,VWS V14.01,2013-10-24 10:39:00,
2013-10-24 03:44:00,53.5,30.4,29.85,SW,224,0.0,0.0,41,0.00,,---,0.00,VWS V14.01,2013-10-24 10:44:00,
2013-10-24 03:49:00,53.1,30.0,29.85,SW,222,0.0,0.0,41,0.00,,---,0.00,VWS V14.01,2013-10-24 10:49:00,
2013-10-24 03:54:00,52.7,30.3,29.85,SW,221,0.0,0.0,42,0.00,,---,0.00,VWS V14.01,2013-10-24 10:54:00,
2013-10-24 03:59:00,52.7,30.3,29.85,SSW,207,0.0,0.0,42,0.00,,---,0.00,VWS V14.01,2013-10-24 10:59:00,
2013-10-24 04:04:00,52.2,29.8,29.85,SSW,195,0.0,0.0,42,0.00,,---,0.00,VWS V14.01,2013-10-24 11:04:00,
2013-10-24 04:09:00,52.6,30.2,29.85,SSW,195,1.0,1.0,42,0.00,,---,0.00,VWS V14.01,2013-10-24 11:09:00,
2013-10-24 04:14:00,52.6,30.2,29.85,SSW,208,2.0,2.0,42,0.00,,---,0.00,VWS V14.01,2013-10-24 11:14:00,
2013-10-24 04:19:00,52.1,30.3,29.85,SSW,212,0.0,2.0,43,0.00,,---,0.00,VWS V14.01,2013-10-24 11:19:00,
2013-10-24 04:24:00,51.9,30.1,29.85,SSW,201,0.0,2.0,43,0.00,,---,0.00,VWS V14.01,2013-10-24 11:24:00,
2013-10-24 04:29:00,51.4,30.8,29.85,SSW,201,0.0,0.0,45,0.00,,---,0.00,VWS V14.01,2013-10-24 11:29:00,
2013-10-24 04:34:00,50.7,30.1,29.85,SSW,201,0.0,0.0,45,0.00,,---,0.00,VWS V14.01,2013-10-24 11:34:00,
2013-10-24 04:39:00,50.5,30.5,29.85,SSW,201,0.0,0.0,46,0.00,,---,0.00,VWS V14.01,2013-10-24 11:39:00,
2013-10-24 04:44:00,50.5,31.0,29.85,SE,137,0.0,0.0,47,0.00,,---,0.00,VWS V14.01,2013-10-24 11:44:00,
2013-10-24 04:49:00,51.4,30.2,29.85,SE,130,1.0,2.0,44,0.00,,---,0.00,VWS V14.01,2013-10-24 11:49:00,
2013-10-24 04:54:00,52.5,30.1,29.85,SE,131,0.0,2.0,42,0.00,,---,0.00,VWS V14.01,2013-10-24 11:54:00,
2013-10-24 04:59:00,53.2,28.9,29.86,SE,131,0.0,0.0,39,0.00,,---,0.00,VWS V14.01,2013-10-24 11:59:00,
2013-10-24 05:04:00,53.0,30.0,29.86,SE,131,0.0,0.0,41,0.00,,---,0.00,VWS V14.01,2013-10-24 12:04:00,
2013-10-24 05:09:00,52.2,30.4,29.86,SE,131,0.0,0.0,43,0.00,,---,0.00,VWS V14.01,2013-10-24 12:09:00,
2013-10-24 05:14:00,50.7,30.7,29.86,SE,131,0.0,0.0,46,0.00,,---,0.00,VWS V14.01,2013-10-24 12:14:00,
2013-10-24 05:19:00,49.7,30.8,29.86,SSW,212,0.0,0.0,48,0.00,,---,0.00,VWS V14.01,2013-10-24 12:19:00,
2013-10-24 05:24:00,49.9,31.0,29.86,SSW,203,1.0,1.0,48,0.00,,---,0.00,VWS V14.01,2013-10-24 12:24:00,
2013-10-24 05:29:00,49.8,30.4,29.86,SW,224,0.0,0.0,47,0.00,,---,0.00,VWS V14.01,2013-10-24 12:29:00,
2013-10-24 05:34:00,49.7,30.3,29.86,SSW,198,0.0,0.0,47,0.00,,---,0.00,VWS V14.01,2013-10-24 12:34:00,
2013-10-24 05:39:00,49.5,29.6,29.86,SSW,198,0.0,0.0,46,0.00,,---,0.00,VWS V14.01,2013-10-24 12:39:00,
2013-10-24 05:44:00,49.6,29.7,29.87,SSW,198,0.0,0.0,46,0.00,,---,0.00,VWS V14.01,2013-10-24 12:44:00,
2013-10-24 05:49:00,49.8,29.9,29.87,SSW,198,0.0,0.0,46,0.00,,---,0.00,VWS V14.01,2013-10-24 12:49:00,
2013-10-24 05:54:00,49.9,30.5,29.87,SSW,203,0.0,0.0,47,0.00,,---,0.00,VWS V14.01,2013-10-24 12:54:00,
2013-10-24 05:59:00,49.3,30.5,29.87,South,186,0.0,0.0,48,0.00,,---,0.00,VWS V14.01,2013-10-24 12:59:00,
2013-10-24 06:04:00,49.2,30.4,29.87,South,172,0.0,0.0,48,0.00,,---,0.00,VWS V14.01,2013-10-24 13:04:00,
2013-10-24 06:09:00,49.4,30.5,29.87,SSE,161,0.0,0.0,48,0.00,,---,0.00,VWS V14.01,2013-10-24 13:09:00,
2013-10-24 06:14:00,49.7,30.3,29.87,SE,145,0.0,0.0,47,0.00,,---,0.00,VWS V14.01,2013-10-24 13:14:00,
2013-10-24 06:19:00,50.2,30.8,29.87,SE,145,0.0,0.0,47,0.00,,---,0.00,VWS V14.01,2013-10-24 13:19:00,
2013-10-24 06:24:00,50.5,31.0,29.87,SE,146,0.0,0.0,47,0.00,,---,0.00,VWS V14.01,2013-10-24 13:24:00,
2013-10-24 06:29:00,50.5,30.5,29.87,SE,135,0.0,0.0,46,0.00,,---,0.00,VWS V14.01,2013-10-24 13:29:00,
2013-10-24 06:34:00,50.2,30.8,29.87,SE,143,0.0,0.0,47,0.00,,---,0.00,VWS V14.01,2013-10-24 13:34:00,
2013-10-24 06:39:00,50.1,30.7,29.87,SSE,156,0.0,0.0,47,0.00,,---,0.00,VWS V14.01,2013-10-24 13:39:00,
2013-10-24 06:44:00,49.6,30.7,29.87,South,169,0.0,0.0,48,0.00,,---,0.00,VWS V14.01,2013-10-24 13:44:00,
2013-10-24 06:49:00,49.9,30.5,29.87,SSE,158,0.0,0.0,47,0.00,,---,0.00,VWS V14.01,2013-10-24 13:49:00,
2013-10-24 06:54:00,50.6,30.1,29.88,SSE,148,0.0,0.0,45,0.00,,---,0.00,VWS V14.01,2013-10-24 13:54:00,
2013-10-24 06:59:00,51.4,31.3,29.87,SE,142,0.0,0.0,46,0.00,,---,0.00,VWS V14.01,2013-10-24 13:59:00,
2013-10-24 07:04:00,50.7,30.1,29.88,SSE,156,0.0,0.0,45,0.00,,---,0.00,VWS V14.01,2013-10-24 14:04:00,
2013-10-24 07:09:00,51.0,29.9,29.88,SSE,156,0.0,0.0,44,0.00,,---,0.00,VWS V14.01,2013-10-24 14:09:00,
2013-10-24 07:14:00,51.4,30.2,29.88,SSE,154,0.0,0.0,44,0.00,,---,0.00,VWS V14.01,2013-10-24 14:14:00,
2013-10-24 07:19:00,51.7,30.5,29.88,SSE,150,0.0,0.0,44,0.00,,---,0.00,VWS V14.01,2013-10-24 14:19:00,
2013-10-24 07:24:00,52.2,30.4,29.88,SSE,153,0.0,0.0,43,0.00,,---,0.00,VWS V14.01,2013-10-24 14:24:00,
2013-10-24 07:29:00,52.4,30.6,29.88,SE,146,0.0,0.0,43,0.00,,---,0.00,VWS V14.01,2013-10-24 14:29:00,
2013-10-24 07:35:00,54.3,31.1,29.89,SE,145,0.0,0.0,41,0.00,,---,0.00,VWS V14.01,2013-10-24 14:35:00,
2013-10-24 07:40:00,54.8,31.0,29.89,SE,146,0.0,0.0,40,0.00,,---,0.00,VWS V14.01,2013-10-24 14:40:00,
2013-10-24 07:45:00,54.9,31.7,29.89,SE,146,0.0,0.0,41,0.00,,---,0.00,VWS V14.01,2013-10-24 14:45:00,
2013-10-24 07:50:00,54.6,32.0,29.89,ESE,121,0.0,0.0,42,0.00,,---,0.00,VWS V14.01,2013-10-24 14:50:00,
2013-10-24 07:55:00,54.1,32.1,29.89,ESE,121,0.0,0.0,43,0.00,,---,0.00,VWS V14.01,2013-10-24 14:55:00,
2013-10-24 08:00:00,54.7,32.7,29.89,SE,127,0.0,0.0,43,0.00,,---,0.00,VWS V14.01,2013-10-24 15:00:00,
2013-10-24 08:05:00,54.8,32.8,29.90,SE,127,0.0,0.0,43,0.00,,---,0.00,VWS V14.01,2013-10-24 15:05:00,
2013-10-24 08:10:00,54.9,32.8,29.90,SE,127,0.0,0.0,43,0.00,,---,0.00,VWS V14.01,2013-10-24 15:10:00,
2013-10-24 08:15:00,54.9,32.8,29.90,SE,125,0.0,0.0,43,0.00,,---,0.00,VWS V14.01,2013-10-24 15:15:00,
2013-10-24 08:20:00,55.0,33.5,29.90,SE,125,0.0,0.0,44,0.00,,---,0.00,VWS V14.01,2013-10-24 15:20:00,
2013-10-24 08:25:00,55.5,34.5,29.91,SE,127,0.0,0.0,45,0.00,,---,0.00,VWS V14.01,2013-10-24 15:25:00,
2013-10-24 08:30:00,56.0,34.4,29.91,SSE,162,0.0,0.0,44,0.00,,---,0.00,VWS V14.01,2013-10-24 15:30:00,
2013-10-24 08:35:00,56.9,35.2,29.91,SSE,162,0.0,0.0,44,0.00,,---,0.00,VWS V14.01,2013-10-24 15:35:00,
2013-10-24 08:40:00,57.5,35.8,29.91,SSW,211,0.0,0.0,44,0.00,,---,0.00,VWS V14.01,2013-10-24 15:40:00,
2013-10-24 08:45:00,57.9,35.6,29.91,WNW,301,0.0,0.0,43,0.00,,---,0.00,VWS V14.01,2013-10-24 15:45:00,
2013-10-24 08:50:00,58.1,35.2,29.91,West,278,0.0,0.0,42,0.00,,---,0.00,VWS V14.01,2013-10-24 15:50:00,
2013-10-24 08:55:00,58.7,35.1,29.91,WSW,252,0.0,0.0,41,0.00,,---,0.00,VWS V14.01,2013-10-24 15:55:00,
2013-10-24 09:00:00,59.5,35.8,29.91,WSW,248,0.0,0.0,41,0.00,,---,0.00,VWS V14.01,2013-10-24 16:00:00,
2013-10-24 09:05:00,61.1,36.0,29.91,WSW,248,0.0,0.0,39,0.00,,---,0.00,VWS V14.01,2013-10-24 16:05:00,
2013-10-24 09:10:00,62.6,35.3,29.91,SE,131,0.0,0.0,36,0.00,,---,0.00,VWS V14.01,2013-10-24 16:10:00,
2013-10-24 09:15:00,63.7,34.8,29.91,East,91,0.0,0.0,34,0.00,,---,0.00,VWS V14.01,2013-10-24 16:15:00,
2013-10-24 09:20:00,63.5,35.4,29.91,North,10,0.0,0.0,35,0.00,,---,0.00,VWS V14.01,2013-10-24 16:20:00,
2013-10-24 09:25:00,63.6,34.7,29.91,NNE,32,0.0,0.0,34,0.00,,---,0.00,VWS V14.01,2013-10-24 16:25:00,
2013-10-24 09:30:00,64.0,34.3,29.91,North,10,0.0,0.0,33,0.00,,---,0.00,VWS V14.01,2013-10-24 16:30:00,
2013-10-24 09:35:00,64.4,34.7,29.91,North,1,0.0,1.0,33,0.00,,---,0.00,VWS V14.01,2013-10-24 16:35:00,
2013-10-24 09:40:00,65.1,35.3,29.91,NW,315,0.0,2.0,33,0.00,,---,0.00,VWS V14.01,2013-10-24 16:40:00,
2013-10-24 09:45:00,65.5,34.9,29.91,NW,315,0.0,0.0,32,0.00,,---,0.00,VWS V14.01,2013-10-24 16:45:00,
2013-10-24 09:50:00,66.0,34.5,29.91,NNE,14,1.0,2.0,31,0.00,,---,0.00,VWS V14.01,2013-10-24 16:50:00,
2013-10-24 09:55:00,66.6,35.0,29.91,NNE,14,0.0,2.0,31,0.00,,---,0.00,VWS V14.01,2013-10-24 16:55:00,
2013-10-24 10:00:00,67.2,34.8,29.91,North,355,2.0,2.0,30,0.00,,---,0.00,VWS V14.01,2013-10-24 17:00:00,
2013-10-24 10:05:00,67.6,34.2,29.91,North,351,1.0,2.0,29,0.00,,---,0.00,VWS V14.01,2013-10-24 17:05:00,
2013-10-24 10:10:00,68.1,34.7,29.91,North,351,0.0,2.0,29,0.00,,---,0.00,VWS V14.01,2013-10-24 17:10:00,
2013-10-24 10:15:00,68.7,34.3,29.91,NNW,342,1.0,2.0,28,0.00,,---,0.00,VWS V14.01,2013-10-24 17:15:00,
2013-10-24 10:20:00,69.4,34.9,29.91,North,8,1.0,2.0,28,0.00,,---,0.00,VWS V14.01,2013-10-24 17:20:00,
2013-10-24 10:25:00,70.1,33.7,29.91,North,10,0.0,2.0,26,0.00,,---,0.00,VWS V14.01,2013-10-24 17:25:00,
2013-10-24 10:30:00,71.0,34.4,29.91,NW,308,0.0,0.0,26,0.00,,---,0.00,VWS V14.01,2013-10-24 17:30:00,
2013-10-24 10:35:00,71.6,34.0,29.91,NW,308,0.0,0.0,25,0.00,,---,0.00,VWS V14.01,2013-10-24 17:35:00,
2013-10-24 10:40:00,72.5,33.7,29.91,NE,44,0.0,0.0,24,0.00,,---,0.00,VWS V14.01,2013-10-24 17:40:00,
2013-10-24 10:45:00,72.9,31.9,29.91,NNE,30,0.0,3.0,22,0.00,,---,0.00,VWS V14.01,2013-10-24 17:45:00,
2013-10-24 10:50:00,73.2,31.0,29.91,NNE,33,0.0,3.0,21,0.00,,---,0.00,VWS V14.01,2013-10-24 17:50:00,
2013-10-24 10:55:00,73.7,30.2,29.91,North,353,0.0,3.0,20,0.00,,---,0.00,VWS V14.01,2013-10-24 17:55:00,
2013-10-24 11:00:00,74.1,30.5,29.91,NNE,26,5.0,5.0,20,0.00,,---,0.00,VWS V14.01,2013-10-24 18:00:00,
2013-10-24 11:05:00,74.4,30.8,29.91,NW,309,0.0,5.0,20,0.00,,---,0.00,VWS V14.01,2013-10-24 18:05:00,
2013-10-24 11:10:00,74.8,29.8,29.91,WNW,288,0.0,5.0,19,0.00,,---,0.00,VWS V14.01,2013-10-24 18:10:00,
2013-10-24 11:15:00,75.1,27.4,29.91,West,278,0.0,0.0,17,0.00,,---,0.00,VWS V14.01,2013-10-24 18:15:00,
2013-10-24 11:20:00,75.6,27.8,29.91,NE,39,0.0,3.0,17,0.00,,---,0.00,VWS V14.01,2013-10-24 18:20:00,
2013-10-24 11:25:00,75.5,27.7,29.91,NE,53,0.0,4.0,17,0.00,,---,0.00,VWS V14.01,2013-10-24 18:25:00,
2013-10-24 11:30:00,75.6,27.8,29.91,North,1,4.0,4.0,17,0.00,,---,0.00,VWS V14.01,2013-10-24 18:30:00,
2013-10-24 11:35:00,75.8,29.3,29.91,North,349,0.0,4.0,18,0.00,,---,0.00,VWS V14.01,2013-10-24 18:35:00,
2013-10-24 11:40:00,76.2,26.8,29.91,NW,314,0.0,4.0,16,0.00,,---,0.00,VWS V14.01,2013-10-24 18:40:00,
2013-10-24 11:45:00,76.7,30.0,29.90,NE,39,0.0,0.0,18,0.00,,---,0.00,VWS V14.01,2013-10-24 18:45:00,
2013-10-24 11:50:00,76.8,25.7,29.90,NE,39,0.0,3.0,15,0.00,,---,0.00,VWS V14.01,2013-10-24 18:50:00,
2013-10-24 11:55:00,77.3,26.1,29.90,SE,143,0.0,3.0,15,0.00,,---,0.00,VWS V14.01,2013-10-24 18:55:00,
2013-10-24 12:02:00,78.1,26.7,29.90,NE,43,0.0,0.0,15,0.00,,---,0.00,VWS V14.01,2013-10-24 19:02:00,
2013-10-24 12:07:00,78.0,25.0,29.90,NE,56,0.0,4.0,14,0.00,,---,0.00,VWS V14.01,2013-10-24 19:07:00,
2013-10-24 12:12:00,77.6,26.3,29.90,East,93,0.0,4.0,15,0.00,,---,0.00,VWS V14.01,2013-10-24 19:12:00,
2013-10-24 12:17:00,78.0,25.0,29.90,ESE,105,0.0,0.0,14,0.00,,---,0.00,VWS V14.01,2013-10-24 19:17:00,
2013-10-24 12:22:00,79.0,27.5,29.89,South,186,0.0,0.0,15,0.00,,---,0.00,VWS V14.01,2013-10-24 19:22:00,
2013-10-24 12:27:00,79.2,27.6,29.89,West,279,0.0,0.0,15,0.00,,---,0.00,VWS V14.01,2013-10-24 19:27:00,
2013-10-24 12:32:00,78.6,25.5,29.89,NNE,23,1.0,6.0,14,0.00,,---,0.00,VWS V14.01,2013-10-24 19:32:00,
2013-10-24 12:37:00,78.9,25.7,29.89,SW,233,0.0,6.0,14,0.00,,---,0.00,VWS V14.01,2013-10-24 19:37:00,
2013-10-24 12:42:00,79.4,24.3,29.89,NE,56,1.0,6.0,13,0.00,,---,0.00,VWS V14.01,2013-10-24 19:42:00,
2013-10-24 12:47:00,79.2,25.9,29.88,NW,316,0.0,6.0,14,0.00,,---,0.00,VWS V14.01,2013-10-24 19:47:00,
2013-10-24 12:52:00,79.0,25.8,29.88,WNW,303,0.0,6.0,14,0.00,,---,0.00,VWS V14.01,2013-10-24 19:52:00,
2013-10-24 12:57:00,79.1,25.9,29.88,NNW,333,2.0,6.0,14,0.00,,---,0.00,VWS V14.01,2013-10-24 19:57:00,
2013-10-24 13:02:00,79.3,26.0,29.88,NE,36,3.0,6.0,14,0.00,,---,0.00,VWS V14.01,2013-10-24 20:02:00,
2013-10-24 13:07:00,79.0,25.8,29.88,WNW,283,2.0,8.0,14,0.00,,---,0.00,VWS V14.01,2013-10-24 20:07:00,
2013-10-24 13:12:00,79.2,24.2,29.88,NNE,18,0.0,8.0,13,0.00,,---,0.00,VWS V14.01,2013-10-24 20:12:00,
2013-10-24 13:17:00,79.7,26.3,29.87,NW,306,1.0,1.0,14,0.00,,---,0.00,VWS V14.01,2013-10-24 20:17:00,
2013-10-24 13:22:00,80.1,24.9,29.87,SW,225,1.0,3.0,13,0.00,,---,0.00,VWS V14.01,2013-10-24 20:22:00,
2013-10-24 13:27:00,80.4,25.1,29.87,East,89,3.0,4.0,13,0.00,,---,0.00,VWS V14.01,2013-10-24 20:27:00,
2013-10-24 13:32:00,80.1,24.9,29.86,NE,51,2.0,6.0,13,0.00,,---,0.00,VWS V14.01,2013-10-24 20:32:00,
2013-10-24 13:37:00,80.1,24.9,29.86,NE,44,7.0,7.0,13,0.00,,---,0.00,VWS V14.01,2013-10-24 20:37:00,
2013-10-24 13:42:00,80.0,24.8,29.86,ENE,66,0.0,7.0,13,0.00,,---,0.00,VWS V14.01,2013-10-24 20:42:00,
2013-10-24 13:47:00,80.2,25.0,29.86,NNW,348,1.0,4.0,13,0.00,,---,0.00,VWS V14.01,2013-10-24 20:47:00,
2013-10-24 13:52:00,80.3,25.0,29.86,WNW,294,4.0,4.0,13,0.00,,---,0.00,VWS V14.01,2013-10-24 20:52:00,
2013-10-24 13:57:00,80.5,25.2,29.85,NE,52,4.0,4.0,13,0.00,,---,0.00,VWS V14.01,2013-10-24 20:57:00,
2013-10-24 14:03:00,80.4,25.1,29.85,East,98,4.0,6.0,13,0.00,,---,0.00,VWS V14.01,2013-10-24 21:03:00,
2013-10-24 14:08:00,80.9,23.6,29.85,SE,129,0.0,6.0,12,0.00,,---,0.00,VWS V14.01,2013-10-24 21:08:00,
2013-10-24 14:13:00,81.8,24.3,29.85,SSW,193,0.0,6.0,12,0.00,,---,0.00,VWS V14.01,2013-10-24 21:13:00,
2013-10-24 14:18:00,81.3,23.9,29.85,NE,37,0.0,4.0,12,0.00,,---,0.00,VWS V14.01,2013-10-24 21:18:00,
2013-10-24 14:23:00,80.9,25.5,29.85,NE,39,0.0,4.0,13,0.00,,---,0.00,VWS V14.01,2013-10-24 21:23:00,
2013-10-24 14:28:00,81.4,24.0,29.85,ESE,113,0.0,4.0,12,0.00,,---,0.00,VWS V14.01,2013-10-24 21:28:00,
2013-10-24 14:33:00,81.6,24.1,29.84,North,11,3.0,5.0,12,0.00,,---,0.00,VWS V14.01,2013-10-24 21:33:00,
2013-10-24 14:38:00,81.4,24.0,29.84,NE,43,1.0,6.0,12,0.00,,---,0.00,VWS V14.01,2013-10-24 21:38:00,
2013-10-24 14:43:00,81.8,24.3,29.84,NE,51,1.0,6.0,12,0.00,,---,0.00,VWS V14.01,2013-10-24 21:43:00,
2013-10-24 14:48:00,81.9,24.4,29.84,NNW,344,3.0,7.0,12,0.00,,---,0.00,VWS V14.01,2013-10-24 21:48:00,
2013-10-24 14:53:00,81.5,26.0,29.84,NE,46,0.0,9.0,13,0.00,,---,0.00,VWS V14.01,2013-10-24 21:53:00,
2013-10-24 14:58:00,81.7,24.2,29.84,NE,53,4.0,9.0,12,0.00,,---,0.00,VWS V14.01,2013-10-24 21:58:00,
2013-10-24 15:03:00,81.6,24.1,29.84,ENE,77,5.0,7.0,12,0.00,,---,0.00,VWS V14.01,2013-10-24 22:03:00,
2013-10-24 15:08:00,81.6,24.1,29.84,NNW,332,3.0,7.0,12,0.00,,---,0.00,VWS V14.01,2013-10-24 22:08:00,
2013-10-24 15:13:00,81.4,24.0,29.84,WNW,290,4.0,7.0,12,0.00,,---,0.00,VWS V14.01,2013-10-24 22:13:00,
2013-10-24 15:18:00,81.7,22.1,29.84,ENE,67,1.0,5.0,11,0.00,,---,0.00,VWS V14.01,2013-10-24 22:18:00,
2013-10-24 15:23:00,81.6,22.0,29.84,ENE,71,0.0,5.0,11,0.00,,---,0.00,VWS V14.01,2013-10-24 22:23:00,
2013-10-24 15:28:00,82.7,22.9,29.84,NE,46,0.0,5.0,11,0.00,,---,0.00,VWS V14.01,2013-10-24 22:28:00,
2013-10-24 15:33:00,81.9,22.3,29.84,North,352,1.0,7.0,11,0.00,,---,0.00,VWS V14.01,2013-10-24 22:33:00,
2013-10-24 15:38:00,82.2,22.5,29.84,SSW,207,1.0,7.0,11,0.00,,---,0.00,VWS V14.01,2013-10-24 22:38:00,
2013-10-24 15:43:00,82.7,22.9,29.84,WSW,249,0.0,7.0,11,0.00,,---,0.00,VWS V14.01,2013-10-24 22:43:00,
2013-10-24 15:48:00,82.5,22.8,29.84,NE,44,9.0,9.0,11,0.00,,---,0.00,VWS V14.01,2013-10-24 22:48:00,
2013-10-24 15:53:00,81.9,22.3,29.84,North,354,1.0,9.0,11,0.00,,---,0.00,VWS V14.01,2013-10-24 22:53:00,
2013-10-24 15:58:00,81.9,22.3,29.84,North,8,0.0,9.0,11,0.00,,---,0.00,VWS V14.01,2013-10-24 22:58:00,
2013-10-24 16:03:00,82.9,23.0,29.84,NW,326,0.0,0.0,11,0.00,,---,0.00,VWS V14.01,2013-10-24 23:03:00,
2013-10-24 16:08:00,82.5,20.5,29.84,North,6,5.0,6.0,10,0.00,,---,0.00,VWS V14.01,2013-10-24 23:08:00,
2013-10-24 16:13:00,82.4,22.7,29.84,North,360,1.0,6.0,11,0.00,,---,0.00,VWS V14.01,2013-10-24 23:13:00,
2013-10-24 16:19:00,82.9,20.8,29.84,ESE,113,0.0,2.0,10,0.00,,---,0.00,VWS V14.01,2013-10-24 23:19:00,
2013-10-24 16:24:00,82.8,20.7,29.84,NE,46,2.0,2.0,10,0.00,,---,0.00,VWS V14.01,2013-10-24 23:24:00,
2013-10-24 16:29:00,82.4,20.4,29.84,NE,51,5.0,6.0,10,0.00,,---,0.00,VWS V14.01,2013-10-24 23:29:00,
2013-10-24 16:34:00,82.0,22.4,29.83,NNE,33,0.0,6.0,11,0.00,,---,0.00,VWS V14.01,2013-10-24 23:34:00,
2013-10-24 16:39:00,82.3,22.6,29.84,NNE,33,2.0,6.0,11,0.00,,---,0.00,VWS V14.01,2013-10-24 23:39:00,
2013-10-24 16:44:00,81.9,22.3,29.84,NE,41,5.0,6.0,11,0.00,,---,0.00,VWS V14.01,2013-10-24 23:44:00,
2013-10-24 16:49:00,81.8,22.2,29.84,NNE,33,0.0,6.0,11,0.00,,---,0.00,VWS V14.01,2013-10-24 23:49:00,
2013-10-24 16:54:00,82.0,20.1,29.84,NE,43,0.0,6.0,10,0.00,,---,0.00,VWS V14.01,2013-10-24 23:54:00,
2013-10-24 16:59:00,83.0,23.1,29.84,WNW,283,1.0,1.0,11,0.00,,---,0.00,VWS V14.01,2013-10-24 23:59:00,
2013-10-24 17:04:00,81.7,39.2,29.84,WSW,249,6.0,8.0,22,0.00,,---,0.00,VWS V14.01,2013-10-25 00:04:00,
2013-10-24 17:09:00,80.7,41.7,29.84,WSW,239,4.0,8.0,25,0.00,,---,0.00,VWS V14.01,2013-10-25 00:09:00,
2013-10-24 17:14:00,80.0,43.0,29.84,WSW,252,4.0,4.0,27,0.00,,---,0.00,VWS V14.01,2013-10-25 00:14:00,
2013-10-24 17:19:00,79.4,43.5,29.85,SSW,213,1.0,8.0,28,0.00,,---,0.00,VWS V14.01,2013-10-25 00:19:00,
2013-10-24 17:24:00,78.6,43.7,29.85,WSW,239,2.0,12.0,29,0.00,,---,0.00,VWS V14.01,2013-10-25 00:24:00,
2013-10-24 17:29:00,78.1,44.2,29.85,SW,224,2.0,4.0,30,0.00,,---,0.00,VWS V14.01,2013-10-25 00:29:00,
2013-10-24 17:34:00,77.6,43.7,29.85,West,260,5.0,6.0,30,0.00,,---,0.00,VWS V14.01,2013-10-25 00:34:00,
2013-10-24 17:39:00,76.8,43.9,29.85,SW,228,5.0,10.0,31,0.00,,---,0.00,VWS V14.01,2013-10-25 00:39:00,
2013-10-24 17:44:00,76.1,43.3,29.86,West,262,2.0,8.0,31,0.00,,---,0.00,VWS V14.01,2013-10-25 00:44:00,
2013-10-24 17:49:00,75.4,42.7,29.86,WNW,290,3.0,8.0,31,0.00,,---,0.00,VWS V14.01,2013-10-25 00:49:00,
2013-10-24 17:54:00,75.0,40.6,29.86,WSW,249,5.0,8.0,29,0.00,,---,0.00,VWS V14.01,2013-10-25 00:54:00,
2013-10-24 17:59:00,74.7,39.5,29.86,SSW,211,2.0,7.0,28,0.00,,---,0.00,VWS V14.01,2013-10-25 00:59:00,
2013-10-24 18:04:00,74.2,39.0,29.86,WSW,256,5.0,8.0,28,0.00,,---,0.00,VWS V14.01,2013-10-25 01:04:00,
2013-10-24 18:09:00,74.0,37.9,29.87,WSW,239,5.0,8.0,27,0.00,,---,0.00,VWS V14.01,2013-10-25 01:09:00,
2013-10-24 18:14:00,73.8,35.8,29.87,West,271,4.0,9.0,25,0.00,,---,0.00,VWS V14.01,2013-10-25 01:14:00,
2013-10-24 18:19:00,73.8,34.8,29.87,West,260,3.0,12.0,24,0.00,,---,0.00,VWS V14.01,2013-10-25 01:19:00,
2013-10-24 18:24:00,73.6,34.6,29.88,WNW,284,5.0,12.0,24,0.00,,---,0.00,VWS V14.01,2013-10-25 01:24:00,
2013-10-24 18:29:00,73.3,34.4,29.88,WSW,243,12.0,12.0,24,0.00,,---,0.00,VWS V14.01,2013-10-25 01:29:00,
2013-10-24 18:34:00,73.0,30.8,29.88,SW,225,4.0,12.0,21,0.00,,---,0.00,VWS V14.01,2013-10-25 01:34:00,
2013-10-24 18:39:00,72.9,29.5,29.88,West,271,11.0,14.0,20,0.00,,---,0.00,VWS V14.01,2013-10-25 01:39:00,
2013-10-24 18:44:00,72.8,29.4,29.89,WSW,243,1.0,10.0,20,0.00,,---,0.00,VWS V14.01,2013-10-25 01:44:00,
2013-10-24 18:49:00,72.7,28.1,29.89,WNW,284,9.0,10.0,19,0.00,,---,0.00,VWS V14.01,2013-10-25 01:49:00,
2013-10-24 18:54:00,72.5,27.9,29.89,WSW,240,4.0,12.0,19,0.00,,---,0.00,VWS V14.01,2013-10-25 01:54:00,
2013-10-24 18:59:00,72.2,27.7,29.90,West,276,6.0,7.0,19,0.00,,---,0.00,VWS V14.01,2013-10-25 01:59:00,
2013-10-24 19:04:00,71.9,27.4,29.89,WNW,300,12.0,12.0,19,0.00,,---,0.00,VWS V14.01,2013-10-25 02:04:00,
2013-10-24 19:09:00,71.6,27.2,29.90,WNW,297,9.0,12.0,19,0.00,,---,0.00,VWS V14.01,2013-10-25 02:09:00,
2013-10-24 19:14:00,71.3,27.0,29.90,WNW,297,5.0,9.0,19,0.00,,---,0.00,VWS V14.01,2013-10-25 02:14:00,
2013-10-24 19:19:00,71.0,26.7,29.90,WSW,243,5.0,14.0,19,0.00,,---,0.00,VWS V14.01,2013-10-25 02:19:00,
2013-10-24 19:24:00,71.0,26.7,29.90,WNW,283,9.0,14.0,19,0.00,,---,0.00,VWS V14.01,2013-10-25 02:24:00,
2013-10-24 19:29:00,70.8,27.8,29.90,West,273,8.0,14.0,20,0.00,,---,0.00,VWS V14.01,2013-10-25 02:29:00,
2013-10-24 19:34:00,70.7,27.7,29.90,NW,306,3.0,14.0,20,0.00,,---,0.00,VWS V14.01,2013-10-25 02:34:00,
2013-10-24 19:39:00,70.6,28.8,29.91,NW,307,7.0,14.0,21,0.00,,---,0.00,VWS V14.01,2013-10-25 02:39:00,
2013-10-24 19:44:00,70.7,27.7,29.91,West,276,7.0,12.0,20,0.00,,---,0.00,VWS V14.01,2013-10-25 02:44:00,
2013-10-24 19:49:00,70.7,27.7,29.91,West,276,6.0,14.0,20,0.00,,---,0.00,VWS V14.01,2013-10-25 02:49:00,
2013-10-24 19:54:00,70.6,27.6,29.91,WNW,291,5.0,14.0,20,0.00,,---,0.00,VWS V14.01,2013-10-25 02:54:00,
2013-10-24 19:59:00,70.5,27.5,29.91,WNW,290,4.0,7.0,20,0.00,,---,0.00,VWS V14.01,2013-10-25 02:59:00,
2013-10-24 20:04:00,70.2,28.5,29.91,WNW,284,3.0,9.0,21,0.00,,---,0.00,VWS V14.01,2013-10-25 03:04:00,
2013-10-24 20:09:00,70.0,28.3,29.91,NW,312,6.0,9.0,21,0.00,,---,0.00,VWS V14.01,2013-10-25 03:09:00,
2013-10-24 20:14:00,70.0,28.3,29.91,WNW,288,4.0,4.0,21,0.00,,---,0.00,VWS V14.01,2013-10-25 03:14:00,
2013-10-24 20:19:00,70.0,28.3,29.91,WNW,283,8.0,10.0,21,0.00,,---,0.00,VWS V14.01,2013-10-25 03:19:00,
2013-10-24 20:24:00,70.1,28.4,29.92,West,277,10.0,13.0,21,0.00,,---,0.00,VWS V14.01,2013-10-25 03:24:00,
2013-10-24 20:29:00,70.3,28.5,29.92,NNW,328,9.0,9.0,21,0.00,,---,0.00,VWS V14.01,2013-10-25 03:29:00,
2013-10-24 20:34:00,70.1,28.4,29.92,WNW,289,5.0,10.0,21,0.00,,---,0.00,VWS V14.01,2013-10-25 03:34:00,
2013-10-24 20:39:00,69.9,28.2,29.92,West,278,6.0,11.0,21,0.00,,---,0.00,VWS V14.01,2013-10-25 03:39:00,
2013-10-24 20:44:00,69.6,28.0,29.92,West,270,0.0,9.0,21,0.00,,---,0.00,VWS V14.01,2013-10-25 03:44:00,
2013-10-24 20:50:00,69.6,28.0,29.92,WNW,288,8.0,9.0,21,0.00,,---,0.00,VWS V14.01,2013-10-25 03:50:00,
2013-10-24 20:55:00,69.7,28.0,29.92,WNW,301,3.0,9.0,21,0.00,,---,0.00,VWS V14.01,2013-10-25 03:55:00,
2013-10-24 21:00:00,69.7,29.2,29.92,WNW,285,1.0,2.0,22,0.00,,---,0.00,VWS V14.01,2013-10-25 04:00:00,
2013-10-24 21:01:00,69.7,29.2,29.92,WNW,290,5.0,5.0,22,0.00,,---,0.00,VWS V14.01,2013-10-25 04:01:00,
2013-10-24 21:02:00,69.6,29.1,29.92,West,280,2.0,6.0,22,0.00,,---,0.00,VWS V14.01,2013-10-25 04:02:00,
2013-10-24 21:03:00,69.5,29.0,29.92,West,267,1.0,6.0,22,0.00,,---,0.00,VWS V14.01,2013-10-25 04:03:00,
2013-10-24 21:08:00,69.2,28.8,29.92,WSW,250,2.0,6.0,22,0.00,,---,0.00,VWS V14.01,2013-10-25 04:08:00,
2013-10-24 21:11:00,69.0,28.6,29.92,West,263,0.0,6.0,22,0.00,,---,0.00,VWS V14.01,2013-10-25 04:11:00,
2013-10-24 21:16:00,68.8,28.4,29.92,West,276,3.0,5.0,22,0.00,,---,0.00,VWS V14.01,2013-10-25 04:16:00,
2013-10-24 21:18:00,68.9,28.5,29.92,SW,236,0.0,6.0,22,0.00,,---,0.00,VWS V14.01,2013-10-25 04:18:00,
2013-10-24 21:23:00,68.6,28.3,29.93,West,274,1.0,6.0,22,0.00,,---,0.00,VWS V14.01,2013-10-25 04:23:00,
2013-10-24 21:28:00,68.5,28.2,29.93,WSW,246,3.0,6.0,22,0.00,,---,0.00,VWS V14.01,2013-10-25 04:28:00,
2013-10-24 21:33:00,68.4,29.2,29.93,SW,219,0.0,6.0,23,0.00,,---,0.00,VWS V14.01,2013-10-25 04:33:00,
2013-10-24 21:38:00,68.2,27.9,29.93,WSW,240,1.0,6.0,22,0.00,,---,0.00,VWS V14.01,2013-10-25 04:38:00,
2013-10-24 21:43:00,67.9,27.7,29.94,SE,129,0.0,6.0,22,0.00,,---,0.00,VWS V14.01,2013-10-25 04:43:00,
2013-10-24 21:48:00,66.9,27.9,29.94,SE,124,0.0,2.0,23,0.00,,---,0.00,VWS V14.01,2013-10-25 04:48:00,
2013-10-24 21:53:00,66.5,27.6,29.94,East,89,0.0,2.0,23,0.00,,---,0.00,VWS V14.01,2013-10-25 04:53:00,
2013-10-24 21:58:00,67.0,28.0,29.94,West,267,0.0,2.0,23,0.00,,---,0.00,VWS V14.01,2013-10-25 04:58:00,
2013-10-24 22:03:00,67.6,28.5,29.94,West,260,0.0,0.0,23,0.00,,---,0.00,VWS V14.01,2013-10-25 05:03:00,
2013-10-24 22:08:00,68.3,28.0,29.95,WNW,290,0.0,0.0,22,0.00,,---,0.00,VWS V14.01,2013-10-25 05:08:00,
2013-10-24 22:13:00,68.8,27.3,29.95,West,278,6.0,6.0,21,0.00,,---,0.00,VWS V14.01,2013-10-25 05:13:00,
2013-10-24 22:18:00,69.2,27.6,29.95,WSW,241,0.0,5.0,21,0.00,,---,0.00,VWS V14.01,2013-10-25 05:18:00,
2013-10-24 22:23:00,69.4,27.8,29.94,West,263,2.0,7.0,21,0.00,,---,0.00,VWS V14.01,2013-10-25 05:23:00,
2013-10-24 22:28:00,69.5,27.9,29.95,West,274,4.0,7.0,21,0.00,,---,0.00,VWS V14.01,2013-10-25 05:28:00,
2013-10-24 22:33:00,69.3,27.7,29.95,WSW,246,2.0,4.0,21,0.00,,---,0.00,VWS V14.01,2013-10-25 05:33:00,
2013-10-24 22:38:00,68.8,28.4,29.95,SSW,201,0.0,4.0,22,0.00,,---,0.00,VWS V14.01,2013-10-25 05:38:00,
2013-10-24 22:43:00,67.4,28.4,29.95,SSE,155,0.0,6.0,23,0.00,,---,0.00,VWS V14.01,2013-10-25 05:43:00,
2013-10-24 22:48:00,66.2,28.4,29.95,ESE,119,0.0,1.0,24,0.00,,---,0.00,VWS V14.01,2013-10-25 05:48:00,
2013-10-24 22:53:00,65.4,28.7,29.95,ESE,120,0.0,1.0,25,0.00,,---,0.00,VWS V14.01,2013-10-25 05:53:00,
2013-10-24 22:58:00,65.0,28.4,29.95,South,180,0.0,1.0,25,0.00,,---,0.00,VWS V14.01,2013-10-25 05:58:00,
2013-10-24 23:03:00,64.7,29.0,29.95,SE,145,1.0,2.0,26,0.00,,---,0.00,VWS V14.01,2013-10-25 06:03:00,
2013-10-24 23:08:00,64.2,27.7,29.95,WSW,242,0.0,2.0,25,0.00,,---,0.00,VWS V14.01,2013-10-25 06:08:00,
2013-10-24 23:13:00,63.7,28.2,29.95,South,191,0.0,2.0,26,0.00,,---,0.00,VWS V14.01,2013-10-25 06:13:00,
2013-10-24 23:18:00,63.1,28.6,29.95,SSE,148,0.0,0.0,27,0.00,,---,0.00,VWS V14.01,2013-10-25 06:18:00,
2013-10-24 23:23:00,62.6,28.2,29.95,SSE,165,0.0,0.0,27,0.00,,---,0.00,VWS V14.01,2013-10-25 06:23:00,
2013-10-24 23:28:00,62.3,28.8,29.95,SSE,158,0.0,0.0,28,0.00,,---,0.00,VWS V14.01,2013-10-25 06:28:00,
2013-10-24 23:33:00,61.9,29.3,29.95,SSE,152,0.0,0.0,29,0.00,,---,0.00,VWS V14.01,2013-10-25 06:33:00,
2013-10-24 23:39:00,61.8,28.4,29.95,SSE,149,0.0,0.0,28,0.00,,---,0.00,VWS V14.01,2013-10-25 06:39:00,
2013-10-24 23:44:00,61.7,29.1,29.95,SSE,149,0.0,0.0,29,0.00,,---,0.00,VWS V14.01,2013-10-25 06:44:00,
2013-10-24 23:49:00,61.3,29.6,29.95,SE,142,0.0,0.0,30,0.00,,---,0.00,VWS V14.01,2013-10-25 06:49:00,
2013-10-24 23:54:00,60.9,29.3,29.95,SE,139,0.0,0.0,30,0.00,,---,0.00,VWS V14.01,2013-10-25 06:54:00,
2013-10-24 23:59:00,60.8,29.2,29.95,SSE,148,0.0,0.0,30,0.00,,---,0.00,VWS V14.01,2013-10-25 06:59:00,